createdAt,value
2023-04-02T00:01:00.389Z,0.22
2023-04-02T00:04:14.507Z,0.20
2023-04-02T00:06:45.323Z,0.22
2023-04-02T00:09:14.747Z,0.30
2023-04-02T00:11:44.096Z,0.20
2023-04-02T00:14:36.964Z,0.28
2023-04-02T00:17:05.680Z,0.45
2023-04-02T00:19:58.119Z,0.20
2023-04-02T00:22:29.203Z,0.20
2023-04-02T00:24:56.957Z,0.20
2023-04-02T00:27:23.864Z,0.30
2023-04-02T00:29:55.885Z,0.20
2023-04-02T00:32:27.254Z,0.20
2023-04-02T00:34:55.586Z,0.25
2023-04-02T00:37:27.947Z,0.30
2023-04-02T00:40:07.083Z,0.20
2023-04-02T00:42:35.285Z,0.30
2023-04-02T00:45:02.731Z,0.22
2023-04-02T00:47:38.827Z,0.30
2023-04-02T00:50:11.402Z,0.20
2023-04-02T00:52:39.699Z,0.30
2023-04-02T00:55:15.544Z,0.20
2023-04-02T00:57:44.916Z,0.20
2023-04-02T01:00:34.552Z,0.20
2023-04-02T01:03:16.655Z,0.30
2023-04-02T01:05:46.732Z,0.32
2023-04-02T01:08:19.364Z,0.30
2023-04-02T01:11:20.499Z,0.30
2023-04-02T01:14:11.496Z,0.20
2023-04-02T01:17:28.190Z,0.30
2023-04-02T01:20:16.722Z,0.40
2023-04-02T01:23:08.035Z,0.20
2023-04-02T01:25:51.074Z,0.20
2023-04-02T01:28:22.319Z,0.20
2023-04-02T01:30:55.894Z,0.30
2023-04-02T01:33:30.700Z,0.20
2023-04-02T01:36:14.299Z,0.20
2023-04-02T01:38:52.226Z,0.30
2023-04-02T01:41:33.815Z,0.20
2023-04-02T01:44:09.487Z,0.20
2023-04-02T01:46:42.106Z,0.20
2023-04-02T01:49:15.345Z,0.20
2023-04-02T01:51:44.507Z,0.20
2023-04-02T01:54:13.635Z,0.20
2023-04-02T01:56:41.274Z,0.20
2023-04-02T01:59:10.979Z,0.20
2023-04-02T02:01:52.374Z,0.30
2023-04-02T02:04:19.466Z,0.30
2023-04-02T02:06:47.165Z,0.30
2023-04-02T02:09:24.082Z,0.20
2023-04-02T02:11:51.306Z,0.57
2023-04-02T02:14:21.953Z,0.35
2023-04-02T02:16:49.664Z,0.20
2023-04-02T02:19:28.302Z,0.20
2023-04-02T02:21:58.442Z,0.50
2023-04-02T02:24:33.217Z,0.20
2023-04-02T02:27:40.457Z,0.30
2023-04-02T02:30:17.305Z,0.20
2023-04-02T02:32:54.031Z,0.30
2023-04-02T02:35:30.991Z,0.20
2023-04-02T02:38:26.734Z,0.20
2023-04-02T02:40:58.818Z,0.30
2023-04-02T02:43:26.856Z,0.20
2023-04-02T02:45:56.744Z,0.20
2023-04-02T02:48:33.016Z,0.20
2023-04-02T02:51:02.047Z,0.20
2023-04-02T02:53:28.622Z,0.20
2023-04-02T02:56:01.183Z,0.40
2023-04-02T02:58:34.357Z,0.30
2023-04-02T03:01:18.557Z,0.40
2023-04-02T03:03:48.885Z,0.20
2023-04-02T03:06:17.279Z,0.20
2023-04-02T03:08:56.217Z,0.45
2023-04-02T03:11:33.173Z,0.30
2023-04-02T03:14:15.302Z,0.30
2023-04-02T03:16:49.725Z,0.40
2023-04-02T03:19:43.640Z,0.30
2023-04-02T03:22:21.442Z,0.20
2023-04-02T03:25:02.015Z,0.30
2023-04-02T03:27:34.554Z,0.43
2023-04-02T03:30:20.510Z,0.43
2023-04-02T03:32:51.771Z,0.30
2023-04-02T03:35:43.042Z,0.20
2023-04-02T03:38:19.041Z,0.30
2023-04-02T03:41:01.480Z,0.35
2023-04-02T03:43:35.760Z,0.38
2023-04-02T03:46:24.385Z,0.30
2023-04-02T03:48:56.382Z,0.30
2023-04-02T03:51:30.385Z,0.30
2023-04-02T03:53:57.531Z,0.20
2023-04-02T03:56:39.644Z,0.82
2023-04-02T03:59:48.578Z,0.25
2023-04-02T04:02:35.158Z,0.40
2023-04-02T04:05:06.682Z,0.30
2023-04-02T04:07:38.788Z,0.20
2023-04-02T04:10:08.109Z,0.40
2023-04-02T04:12:40.141Z,0.57
2023-04-02T04:15:22.056Z,0.40
2023-04-02T04:18:05.762Z,0.35
2023-04-02T04:20:47.734Z,0.20
2023-04-02T04:23:30.070Z,0.50
2023-04-02T04:26:10.831Z,0.25
2023-04-02T04:28:58.146Z,0.25
2023-04-02T04:31:55.090Z,0.20
2023-04-02T04:34:42.239Z,0.30
2023-04-02T04:37:21.728Z,0.30
2023-04-02T04:39:55.456Z,0.20
2023-04-02T04:42:32.654Z,0.40
2023-04-02T04:45:03.251Z,0.30
2023-04-02T04:47:38.197Z,0.40
2023-04-02T04:50:13.486Z,0.30
2023-04-02T04:52:42.598Z,0.40
2023-04-02T04:55:39.906Z,0.30
2023-04-02T04:58:17.962Z,0.30
2023-04-02T05:00:55.531Z,0.30
2023-04-02T05:03:51.642Z,0.30
2023-04-02T05:06:33.859Z,0.57
2023-04-02T05:09:17.465Z,2.92
2023-04-02T05:12:02.922Z,0.47
2023-04-02T05:15:12.490Z,0.30
2023-04-02T05:18:17.977Z,0.30
2023-04-02T05:20:54.521Z,0.30
2023-04-02T05:23:28.080Z,0.30
2023-04-02T05:26:03.738Z,0.30
2023-04-02T05:28:47.221Z,0.30
2023-04-02T05:31:43.894Z,0.20
2023-04-02T05:34:13.049Z,0.32
2023-04-02T05:36:40.478Z,0.30
2023-04-02T05:39:10.069Z,0.20
2023-04-02T05:41:45.846Z,0.30
2023-04-02T05:44:31.171Z,0.50
2023-04-02T05:47:21.902Z,0.30
2023-04-02T05:50:20.553Z,0.50
2023-04-02T05:52:54.666Z,0.30
2023-04-02T05:55:50.975Z,0.20
2023-04-02T06:01:47.863Z,0.30
2023-04-02T06:04:29.705Z,0.32
2023-04-02T06:07:26.991Z,0.35
2023-04-02T06:10:28.911Z,0.35
2023-04-02T06:13:02.202Z,0.30
2023-04-02T06:15:32.141Z,0.30
2023-04-02T06:18:41.464Z,0.30
2023-04-02T06:21:12.133Z,0.30
2023-04-02T06:23:46.575Z,0.30
2023-04-02T06:26:22.497Z,0.25
2023-04-02T06:29:13.859Z,0.40
2023-04-02T06:31:59.485Z,0.30
2023-04-02T06:34:28.679Z,0.38
2023-04-02T06:37:22.103Z,0.30
2023-04-02T06:39:52.767Z,0.30
2023-04-02T06:42:25.386Z,0.30
2023-04-02T06:45:38.417Z,6.60
2023-04-02T06:48:20.004Z,0.30
2023-04-02T06:51:03.682Z,0.38
2023-04-02T06:53:36.365Z,0.30
2023-04-02T06:56:27.593Z,0.30
2023-04-02T06:58:54.808Z,0.20
2023-04-02T07:01:32.619Z,0.30
2023-04-02T07:03:59.845Z,0.22
2023-04-02T07:06:31.919Z,0.30
2023-04-02T07:09:00.727Z,0.20
2023-04-02T07:11:27.625Z,0.52
2023-04-02T07:13:57.587Z,0.30
2023-04-02T07:16:26.910Z,0.32
2023-04-02T07:18:55.806Z,0.30
2023-04-02T07:21:23.440Z,1.08
2023-04-02T07:23:50.244Z,0.38
2023-04-02T07:26:19.820Z,0.77
2023-04-02T07:28:46.440Z,0.28
2023-04-02T07:31:24.363Z,0.40
2023-04-02T07:33:52.910Z,0.32
2023-04-02T07:36:22.428Z,0.40
2023-04-02T07:38:49.574Z,0.50
2023-04-02T07:41:17.077Z,0.30
2023-04-02T07:43:43.976Z,0.30
2023-04-02T07:46:11.562Z,0.32
2023-04-02T07:48:38.253Z,0.63
2023-04-02T07:51:05.026Z,0.38
2023-04-02T07:53:37.791Z,0.75
2023-04-02T07:56:07.607Z,0.40
2023-04-02T07:58:34.249Z,0.68
2023-04-02T08:01:04.414Z,2.05
2023-04-02T08:03:31.243Z,4.57
2023-04-02T08:05:58.756Z,4.00
2023-04-02T08:08:25.887Z,6.45
2023-04-02T08:10:52.464Z,1.77
2023-04-02T08:13:19.539Z,1.02
2023-04-02T08:15:46.330Z,3.03
2023-04-02T08:18:13.438Z,4.95
2023-04-02T08:20:39.915Z,1.10
2023-04-02T08:23:15.318Z,3.20
2023-04-02T08:28:08.784Z,2.65
2023-04-02T08:30:35.853Z,3.92
2023-04-02T08:33:02.505Z,2.78
2023-04-02T08:35:29.829Z,2.58
2023-04-02T08:37:56.364Z,2.20
2023-04-02T08:40:28.882Z,3.55
2023-04-02T08:43:04.294Z,2.40
2023-04-02T08:48:05.293Z,5.40
2023-04-02T08:50:38.829Z,3.10
2023-04-02T08:53:14.224Z,6.18
2023-04-02T08:58:29.359Z,5.50
2023-04-02T09:00:58.138Z,3.08
2023-04-02T09:03:32.037Z,3.67
2023-04-02T09:05:59.798Z,2.55
2023-04-02T09:08:27.742Z,4.90
2023-04-02T09:11:07.041Z,6.03
2023-04-02T09:13:37.485Z,4.25
2023-04-02T09:16:10.672Z,3.00
2023-04-02T09:18:38.494Z,1.40
2023-04-02T09:21:36.930Z,4.35
2023-04-02T09:24:05.329Z,4.35
2023-04-02T09:26:33.501Z,1.85
2023-04-02T09:29:12.064Z,3.55
2023-04-02T09:31:39.994Z,4.32
2023-04-02T09:34:33.482Z,3.17
2023-04-02T09:37:07.580Z,7.75
2023-04-02T09:39:35.454Z,5.68
2023-04-02T09:42:06.916Z,3.80
2023-04-02T09:44:33.809Z,1.63
2023-04-02T09:47:07.383Z,4.65
2023-04-02T09:49:39.510Z,3.22
2023-04-02T09:52:06.410Z,7.47
2023-04-02T09:54:33.136Z,2.05
2023-04-02T09:57:02.130Z,3.30
2023-04-02T09:59:28.735Z,2.80
2023-04-02T10:01:55.639Z,5.20
2023-04-02T10:04:44.368Z,6.85
2023-04-02T10:07:39.099Z,2.58
2023-04-02T10:10:46.716Z,2.17
2023-04-02T10:13:28.788Z,1.52
2023-04-02T10:16:27.084Z,5.65
2023-04-02T10:19:18.845Z,3.92
2023-04-02T10:21:49.066Z,2.38
2023-04-02T10:24:17.226Z,5.13
2023-04-02T10:26:57.814Z,1.88
2023-04-02T10:29:51.462Z,3.38
2023-04-02T10:32:46.356Z,1.75
2023-04-02T10:35:47.673Z,2.15
2023-04-02T10:38:27.566Z,2.28
2023-04-02T10:41:16.377Z,8.93
2023-04-02T10:43:53.826Z,4.75
2023-04-02T10:46:22.384Z,3.22
2023-04-02T10:49:08.570Z,2.72
2023-04-02T10:51:44.366Z,4.70
2023-04-02T10:54:39.779Z,3.90
2023-04-02T10:57:14.450Z,1.53
2023-04-02T10:59:46.772Z,4.28
2023-04-02T11:02:44.835Z,2.25
2023-04-02T11:05:18.310Z,1.75
2023-04-02T11:07:53.218Z,2.83
2023-04-02T11:10:21.064Z,1.20
2023-04-02T11:12:58.341Z,1.75
2023-04-02T11:15:25.973Z,6.00
2023-04-02T11:17:52.868Z,3.95
2023-04-02T11:20:43.448Z,1.45
2023-04-02T11:23:12.740Z,1.38
2023-04-02T11:25:41.324Z,2.55
2023-04-02T11:28:29.441Z,2.28
2023-04-02T11:30:57.136Z,5.65
2023-04-02T11:33:46.123Z,3.42
2023-04-02T11:36:51.229Z,1.75
2023-04-02T11:39:46.246Z,2.13
2023-04-02T11:42:18.727Z,3.10
2023-04-02T11:44:45.710Z,2.00
2023-04-02T11:47:25.781Z,2.65
2023-04-02T11:49:55.645Z,1.65
2023-04-02T11:52:30.532Z,4.13
2023-04-02T11:55:17.845Z,3.03
2023-04-02T11:57:51.934Z,3.63
2023-04-02T12:00:53.118Z,0.90
2023-04-02T12:03:38.527Z,1.08
2023-04-02T12:06:39.574Z,3.80
2023-04-02T12:09:27.798Z,1.00
2023-04-02T12:12:28.954Z,1.10
2023-04-02T12:14:58.343Z,3.63
2023-04-02T12:17:34.024Z,1.35
2023-04-02T12:20:09.138Z,3.58
2023-04-02T12:22:39.509Z,1.92
2023-04-02T12:25:29.410Z,1.92
2023-04-02T12:28:11.258Z,2.58
2023-04-02T12:30:38.750Z,3.28
2023-04-02T12:33:15.722Z,3.38
2023-04-02T12:35:44.678Z,2.72
2023-04-02T12:38:23.193Z,3.90
2023-04-02T12:40:58.908Z,5.32
2023-04-02T12:43:25.430Z,4.07
2023-04-02T12:45:54.358Z,5.40
2023-04-02T12:48:21.821Z,3.05
2023-04-02T12:50:49.523Z,2.35
2023-04-02T12:53:21.922Z,5.10
2023-04-02T12:55:51.291Z,2.85
2023-04-02T12:58:27.889Z,4.82
2023-04-02T13:01:28.295Z,1.40
2023-04-02T13:04:04.986Z,3.97
2023-04-02T13:06:33.009Z,5.22
2023-04-02T13:09:01.817Z,2.47
2023-04-02T13:11:40.238Z,3.08
2023-04-02T13:14:19.874Z,2.00
2023-04-02T13:16:47.504Z,1.83
2023-04-02T13:19:16.762Z,2.47
2023-04-02T13:21:44.560Z,5.32
2023-04-02T13:24:22.754Z,3.53
2023-04-02T13:26:50.671Z,2.47
2023-04-02T13:29:21.778Z,2.97
2023-04-02T13:31:48.771Z,1.73
2023-04-02T13:34:15.388Z,3.22
2023-04-02T13:36:41.972Z,2.78
2023-04-02T13:39:08.534Z,2.75
2023-04-02T13:41:40.862Z,1.85
2023-04-02T13:44:07.567Z,3.15
2023-04-02T13:46:35.193Z,6.32
2023-04-02T13:49:01.990Z,4.00
2023-04-02T13:51:38.051Z,2.72
2023-04-02T13:54:10.496Z,4.60
2023-04-02T13:56:37.360Z,5.40
2023-04-02T13:59:06.686Z,2.13
2023-04-02T14:01:33.479Z,1.73
2023-04-02T14:04:01.572Z,4.80
2023-04-02T14:06:46.243Z,2.90
2023-04-02T14:09:24.749Z,2.85
2023-04-02T14:12:17.359Z,1.25
2023-04-02T14:15:05.483Z,4.95
2023-04-02T14:18:01.451Z,9.75
2023-04-02T14:20:38.332Z,2.55
2023-04-02T14:23:28.619Z,4.97
2023-04-02T14:26:24.042Z,2.00
2023-04-02T14:28:57.704Z,2.17
2023-04-02T14:31:54.820Z,5.03
2023-04-02T14:34:40.259Z,2.80
2023-04-02T14:37:17.857Z,2.88
2023-04-02T14:40:03.974Z,4.80
2023-04-02T14:42:40.362Z,4.18
2023-04-02T14:45:21.221Z,2.90
2023-04-02T14:47:53.253Z,3.17
2023-04-02T14:50:27.852Z,2.60
2023-04-02T14:53:01.595Z,2.17
2023-04-02T14:55:37.893Z,6.43
2023-04-02T14:58:18.501Z,6.95
2023-04-02T15:00:55.763Z,5.35
2023-04-02T15:03:24.362Z,1.88
2023-04-02T15:06:00.698Z,2.75
2023-04-02T15:08:36.811Z,1.80
2023-04-02T15:11:24.617Z,3.47
2023-04-02T15:14:15.358Z,3.63
2023-04-02T15:16:43.884Z,2.95
2023-04-02T15:19:13.685Z,1.67
2023-04-02T15:22:02.139Z,2.08
2023-04-02T15:24:57.616Z,5.50
2023-04-02T15:27:27.392Z,4.70
2023-04-02T15:30:18.670Z,1.80
2023-04-02T15:32:46.817Z,1.70
2023-04-02T15:35:37.040Z,3.88
2023-04-02T15:38:29.879Z,2.92
2023-04-02T15:41:23.413Z,1.75
2023-04-02T15:44:10.897Z,4.50
2023-04-02T15:46:52.674Z,2.40
2023-04-02T15:49:50.890Z,2.83
2023-04-02T15:52:27.239Z,2.42
2023-04-02T15:55:22.367Z,2.38
2023-04-02T15:58:20.858Z,2.40
2023-04-02T16:00:56.841Z,3.28
2023-04-02T16:03:39.030Z,4.55
2023-04-02T16:06:25.210Z,2.80
2023-04-02T16:09:00.889Z,2.60
2023-04-02T16:11:27.640Z,3.92
2023-04-02T16:14:04.815Z,4.28
2023-04-02T16:16:34.521Z,3.47
2023-04-02T16:19:45.048Z,2.85
2023-04-02T16:22:24.363Z,2.22
2023-04-02T16:25:01.553Z,5.88
2023-04-02T16:27:40.210Z,5.47
2023-04-02T16:30:23.850Z,1.30
2023-04-02T16:33:10.089Z,4.60
2023-04-02T16:35:44.498Z,2.88
2023-04-02T16:38:29.467Z,2.75
2023-04-02T16:41:16.759Z,7.00
2023-04-02T16:44:06.669Z,7.75
2023-04-02T16:46:48.019Z,2.40
2023-04-02T16:49:17.447Z,2.92
2023-04-02T16:52:08.322Z,3.38
2023-04-02T16:54:54.101Z,2.97
2023-04-02T16:57:23.583Z,1.75
2023-04-02T17:00:02.062Z,2.67
2023-04-02T17:02:47.010Z,1.65
2023-04-02T17:05:34.187Z,2.72
2023-04-02T17:08:07.174Z,3.63
2023-04-02T17:11:05.377Z,1.05
2023-04-02T17:13:41.560Z,2.47
2023-04-02T17:16:30.326Z,4.10
2023-04-02T17:18:59.790Z,2.97
2023-04-02T17:21:28.727Z,2.05
2023-04-02T17:23:59.962Z,2.72
2023-04-02T17:26:32.568Z,2.35
2023-04-02T17:29:06.121Z,4.93
2023-04-02T17:31:35.163Z,2.85
2023-04-02T17:34:31.347Z,1.42
2023-04-02T17:37:08.636Z,1.98
2023-04-02T17:39:47.080Z,2.40
2023-04-02T17:42:24.481Z,1.52
2023-04-02T17:45:19.654Z,3.40
2023-04-02T17:48:02.945Z,1.27
2023-04-02T17:50:49.346Z,4.13
2023-04-02T17:53:19.141Z,2.75
2023-04-02T17:56:06.125Z,2.70
2023-04-02T17:58:54.508Z,3.90
2023-04-02T18:01:46.692Z,2.20
2023-04-02T18:04:45.972Z,4.68
2023-04-02T18:07:35.735Z,5.90
2023-04-02T18:10:14.500Z,4.25
2023-04-02T18:12:47.039Z,2.40
2023-04-02T18:15:16.345Z,3.58
2023-04-02T18:17:54.060Z,4.30
2023-04-02T18:21:10.268Z,5.15
2023-04-02T18:23:55.381Z,7.97
2023-04-02T18:26:59.427Z,2.67
2023-04-02T18:29:40.950Z,3.78
2023-04-02T18:32:30.931Z,5.65
2023-04-02T18:35:00.432Z,3.63
2023-04-02T18:37:53.053Z,4.10
2023-04-02T18:40:37.619Z,5.75
2023-04-02T18:43:32.869Z,6.05
2023-04-02T18:46:26.025Z,5.07
2023-04-02T18:48:59.009Z,5.60
2023-04-02T18:51:28.308Z,4.13
2023-04-02T18:54:20.999Z,6.60
2023-04-02T18:56:47.741Z,3.17
2023-04-02T19:00:05.826Z,8.35
2023-04-02T19:02:44.877Z,7.03
2023-04-02T19:05:28.291Z,3.10
2023-04-02T19:08:03.868Z,3.90
2023-04-02T19:10:37.254Z,5.15
2023-04-02T19:13:15.899Z,3.25
2023-04-02T19:15:54.389Z,3.95
2023-04-02T19:18:45.803Z,3.78
2023-04-02T19:21:25.870Z,3.90
2023-04-02T19:24:06.785Z,3.00
2023-04-02T19:26:44.209Z,4.07
2023-04-02T19:29:21.885Z,2.75
2023-04-02T19:32:10.186Z,4.07
2023-04-02T19:35:02.844Z,3.90
2023-04-02T19:37:48.493Z,4.15
2023-04-02T19:40:39.221Z,9.43
2023-04-02T19:43:07.033Z,2.33
2023-04-02T19:45:39.362Z,3.13
2023-04-02T19:48:13.683Z,5.35
2023-04-02T19:50:40.642Z,4.60
2023-04-02T19:53:07.230Z,2.17
2023-04-02T19:55:33.805Z,3.38
2023-04-02T19:58:08.937Z,2.75
2023-04-02T20:00:44.081Z,4.97
2023-04-02T20:03:10.913Z,2.47
2023-04-02T20:05:37.884Z,7.40
2023-04-02T20:08:04.720Z,5.82
2023-04-02T20:10:31.254Z,3.88
2023-04-02T20:12:57.996Z,2.72
2023-04-02T20:15:24.764Z,3.75
2023-04-02T20:17:51.259Z,5.35
2023-04-02T20:20:17.925Z,5.18
2023-04-02T20:22:44.511Z,4.50
2023-04-02T20:25:11.247Z,3.42
2023-04-02T20:27:37.722Z,6.65
2023-04-02T20:30:05.030Z,3.35
2023-04-02T20:32:32.171Z,6.25
2023-04-02T20:34:58.890Z,2.80
2023-04-02T20:37:25.524Z,2.88
2023-04-02T20:39:52.557Z,3.22
2023-04-02T20:42:19.153Z,3.83
2023-04-02T20:44:46.034Z,6.72
2023-04-02T20:47:12.532Z,6.20
2023-04-02T20:49:39.118Z,4.30
2023-04-02T20:52:05.906Z,5.10
2023-04-02T20:54:32.456Z,7.25
2023-04-02T20:56:58.990Z,4.32
2023-04-02T20:59:25.603Z,2.80
2023-04-02T21:01:52.206Z,7.03
2023-04-02T21:04:19.087Z,3.78
2023-04-02T21:06:45.648Z,4.43
2023-04-02T21:09:17.833Z,2.83
2023-04-02T21:11:44.403Z,6.78
2023-04-02T21:14:11.402Z,4.25
2023-04-02T21:16:40.137Z,3.38
2023-04-02T21:19:08.478Z,2.60
2023-04-02T21:21:36.948Z,5.25
2023-04-02T21:24:06.221Z,5.32
2023-04-02T21:26:38.976Z,4.22
2023-04-02T21:29:06.277Z,4.63
2023-04-02T21:31:38.495Z,8.90
2023-04-02T21:34:06.740Z,3.20
2023-04-02T21:36:36.559Z,2.83
2023-04-02T21:39:08.498Z,7.38
2023-04-02T21:41:40.318Z,5.05
2023-04-02T21:44:12.833Z,3.67
2023-04-02T21:46:42.203Z,4.15
2023-04-02T21:49:10.987Z,4.55
2023-04-02T21:51:39.551Z,3.88
2023-04-02T21:54:06.190Z,6.68
2023-04-02T21:56:35.619Z,4.18
2023-04-02T21:59:03.688Z,6.10
2023-04-02T22:01:33.918Z,4.75
2023-04-02T22:04:02.440Z,3.40
2023-04-02T22:06:31.175Z,4.63
2023-04-02T22:09:04.542Z,12.13
2023-04-02T22:11:34.541Z,3.65
2023-04-02T22:14:03.199Z,5.57
2023-04-02T22:16:31.235Z,2.25
2023-04-02T22:18:59.432Z,2.63
2023-04-02T22:21:26.515Z,5.63
2023-04-02T22:23:53.058Z,3.42
2023-04-02T22:26:22.785Z,5.03
2023-04-02T22:28:49.750Z,5.03
2023-04-02T22:31:21.993Z,6.22
2023-04-02T22:33:50.358Z,4.78
2023-04-02T22:36:18.410Z,7.43
2023-04-02T22:38:45.884Z,5.90
2023-04-02T22:41:13.479Z,6.97
2023-04-02T22:43:42.761Z,6.35
2023-04-02T22:46:11.208Z,5.28
2023-04-02T22:48:39.786Z,7.40
2023-04-02T22:51:08.288Z,3.17
2023-04-02T22:53:36.513Z,6.57
2023-04-02T22:56:06.644Z,10.15
2023-04-02T22:58:34.148Z,7.22
2023-04-02T23:01:13.502Z,7.18
2023-04-02T23:03:40.531Z,9.05
2023-04-02T23:06:10.339Z,7.40
2023-04-02T23:08:38.059Z,5.03
2023-04-02T23:11:16.470Z,5.47
2023-04-02T23:13:43.990Z,6.75
2023-04-02T23:16:13.174Z,3.60
2023-04-02T23:18:41.873Z,6.55
2023-04-02T23:21:09.134Z,5.95
2023-04-02T23:23:36.248Z,6.85
2023-04-02T23:26:14.923Z,6.93
2023-04-02T23:28:42.541Z,5.85
2023-04-02T23:31:12.964Z,4.15
2023-04-02T23:33:39.934Z,4.20
2023-04-02T23:36:08.495Z,5.28
2023-04-02T23:38:35.151Z,4.53
2023-04-02T23:41:01.672Z,4.45
2023-04-02T23:43:28.256Z,2.78
2023-04-02T23:45:54.807Z,5.22
2023-04-02T23:48:21.395Z,4.90
2023-04-02T23:50:47.924Z,5.20
2023-04-02T23:53:16.319Z,2.70
2023-04-02T23:55:42.829Z,5.70
2023-04-02T23:58:09.356Z,5.80
